Time;durP1;ratioP1;P1;durP2;ratioP2;P2;SDS_P1;SDS_P2;PMS_P1;PMS_P2;Temp;Humidity;BMP_temperature;BMP_pressure;BME280_temperature;BME280_humidity;BME280_pressure;Samples;Min_cycle;Max_cycle;Signal;HPM_P1;HPM_P2
2023/03/14 00:00:17;;;;;;;6.45;1.08;;;;;;;-1.97;58.52;96791.28;5095808;28;20044;-67
2023/03/14 00:02:45;;;;;;;1.35;0.95;;;;;;;-1.94;58.71;96788.75;5095739;28;20130;-63
2023/03/14 00:05:13;;;;;;;1.55;1.00;;;;;;;-1.88;59.27;96788.00;5095574;28;20109;-66
2023/03/14 00:07:42;;;;;;;2.70;1.25;;;;;;;-1.85;58.88;96787.16;5095551;28;20127;-65
2023/03/14 00:10:12;;;;;;;1.40;1.02;;;;;;;-1.88;58.34;96790.56;5095544;28;20055;-65
2023/03/14 00:12:39;;;;;;;1.45;0.98;;;;;;;-1.94;59.16;96781.06;5095478;28;20090;-64
2023/03/14 00:15:08;;;;;;;2.35;1.13;;;;;;;-1.98;59.53;96768.19;5095346;28;20093;-63
2023/03/14 00:17:37;;;;;;;1.52;0.90;;;;;;;-1.93;59.56;96772.53;5095225;28;20573;-66
2023/03/14 00:20:08;;;;;;;1.60;1.13;;;;;;;-1.95;58.34;96769.09;5095158;28;20098;-65
2023/03/14 00:22:35;;;;;;;1.63;0.90;;;;;;;-1.99;58.37;96774.16;5095369;28;20048;-67
2023/03/14 00:25:05;;;;;;;2.78;0.90;;;;;;;-2.04;58.44;96766.38;5095342;28;20378;-65
2023/03/14 00:27:32;;;;;;;2.38;1.30;;;;;;;-2.01;58.96;96763.00;5095255;28;20566;-65
2023/03/14 00:30:00;;;;;;;1.92;0.93;;;;;;;-2.00;58.67;96757.03;5095188;28;20048;-62
2023/03/14 00:32:27;;;;;;;1.40;1.02;;;;;;;-2.08;58.54;96750.06;5094968;28;20048;-64
2023/03/14 00:34:54;;;;;;;1.70;1.00;;;;;;;-2.18;59.25;96748.22;5095054;28;20131;-65
2023/03/14 00:37:22;;;;;;;2.63;1.25;;;;;;;-2.31;59.16;96745.47;5095088;28;20079;-64
2023/03/14 00:39:49;;;;;;;3.40;1.10;;;;;;;-2.36;59.43;96741.94;5095032;28;20509;-66
2023/03/14 00:42:18;;;;;;;3.05;1.40;;;;;;;-2.43;59.96;96737.56;5094927;28;20534;-66
2023/03/14 00:44:46;;;;;;;1.23;1.05;;;;;;;-2.38;59.94;96738.50;5094847;28;20145;-65
2023/03/14 00:47:13;;;;;;;1.30;1.20;;;;;;;-2.49;60.11;96729.78;5094832;28;20083;-65
2023/03/14 00:49:43;;;;;;;2.10;1.10;;;;;;;-2.47;60.13;96728.97;5094571;28;20052;-63
2023/03/14 00:52:10;;;;;;;1.70;1.27;;;;;;;-2.45;60.52;96728.97;5094662;28;20080;-67
2023/03/14 00:54:37;;;;;;;3.03;1.20;;;;;;;-2.43;60.52;96733.31;5094636;28;20131;-62
2023/03/14 00:57:05;;;;;;;1.20;0.82;;;;;;;-2.49;60.47;96727.22;5094702;28;20047;-66
2023/03/14 00:59:33;;;;;;;2.20;1.00;;;;;;;-2.53;60.58;96723.72;5094604;28;20044;-63
2023/03/14 01:02:01;;;;;;;1.75;1.05;;;;;;;-2.55;60.51;96712.59;5094680;28;20051;-63
2023/03/14 01:04:30;;;;;;;3.35;1.20;;;;;;;-2.59;60.48;96716.81;5094452;28;20417;-65
2023/03/14 01:06:57;;;;;;;1.55;1.10;;;;;;;-2.72;61.10;96705.50;5094473;28;20110;-66
2023/03/14 01:09:24;;;;;;;2.25;1.02;;;;;;;-2.80;61.61;96705.34;5094375;28;20482;-67
2023/03/14 01:11:52;;;;;;;44.65;32.13;;;;;;;-2.74;61.83;96702.03;5094342;28;20105;-65
2023/03/14 01:14:20;;;;;;;11.20;9.50;;;;;;;-2.74;62.49;96686.66;5094241;28;20481;-64
2023/03/14 01:16:50;;;;;;;1.42;1.33;;;;;;;-2.71;62.49;96691.84;5094298;28;20105;-66
2023/03/14 01:19:17;;;;;;;3.75;1.80;;;;;;;-2.63;62.13;96685.97;5094084;28;20136;-65
2023/03/14 01:21:44;;;;;;;5.20;1.70;;;;;;;-2.75;62.25;96684.94;5093626;28;20050;-65
2023/03/14 01:24:13;;;;;;;3.92;3.55;;;;;;;-2.89;62.76;96694.09;5094126;28;20052;-64
2023/03/14 01:26:40;;;;;;;2.22;1.70;;;;;;;-2.90;63.19;96687.22;5094093;28;20460;-63
2023/03/14 01:29:07;;;;;;;2.15;1.90;;;;;;;-2.90;63.32;96685.56;5094053;28;20047;-67
2023/03/14 01:31:35;;;;;;;3.22;2.30;;;;;;;-3.04;64.06;96685.31;5094035;28;20070;-66
2023/03/14 01:34:03;;;;;;;4.63;3.03;;;;;;;-3.18;64.06;96683.38;5093810;28;20079;-63
2023/03/14 01:36:31;;;;;;;4.00;1.80;;;;;;;-3.12;64.59;96680.06;5093905;28;20052;-63
2023/03/14 01:38:58;;;;;;;2.10;1.20;;;;;;;-3.07;64.73;96683.53;5093845;28;20054;-65
2023/03/14 01:41:26;;;;;;;3.53;1.48;;;;;;;-3.06;64.70;96679.31;5093814;28;20477;-66
2023/03/14 01:43:54;;;;;;;2.03;1.65;;;;;;;-3.08;64.90;96673.28;5093845;28;20093;-64
2023/03/14 01:46:29;;;;;;;2.63;1.70;;;;;;;-3.07;65.05;96675.88;5093656;28;20055;-61
2023/03/14 01:49:02;;;;;;;2.92;1.90;;;;;;;-3.11;65.50;96666.41;5093337;28;20044;-67
2023/03/14 01:51:37;;;;;;;3.35;1.92;;;;;;;-3.14;65.80;96670.59;5093664;28;20127;-62
2023/03/14 01:54:11;;;;;;;2.92;1.85;;;;;;;-3.18;65.71;96660.34;5093387;28;20054;-65
2023/03/14 01:56:42;;;;;;;3.90;2.28;;;;;;;-3.22;65.92;96657.69;5093733;28;20076;-66
2023/03/14 01:59:12;;;;;;;2.40;1.83;;;;;;;-3.25;66.01;96655.91;5093644;28;20144;-68
2023/03/14 02:01:43;;;;;;;2.47;1.88;;;;;;;-3.22;66.08;96655.13;5093518;28;20131;-66
2023/03/14 02:04:12;;;;;;;4.93;1.40;;;;;;;-3.24;66.23;96654.22;5093526;28;20131;-65
2023/03/14 02:06:55;;;;;;;2.42;1.67;;;;;;;-3.20;66.18;96659.44;5093524;28;20048;-64
2023/03/14 02:09:23;;;;;;;6.18;3.08;;;;;;;-3.10;65.99;96654.47;5093394;28;20098;-64
2023/03/14 02:11:51;;;;;;;3.20;2.10;;;;;;;-3.20;65.94;96654.31;5093388;28;20502;-63
2023/03/14 02:14:31;;;;;;;3.55;2.88;;;;;;;-3.27;66.47;96644.81;5093296;28;20079;-66
2023/03/14 02:16:59;;;;;;;5.70;2.75;;;;;;;-3.27;66.34;96652.47;5093318;28;20490;-67
2023/03/14 02:19:41;;;;;;;3.95;1.95;;;;;;;-3.27;66.14;96652.47;5093239;28;20068;-66
2023/03/14 02:22:13;;;;;;;7.45;3.10;;;;;;;-3.37;66.22;96650.59;5093251;28;20040;-65
2023/03/14 02:24:47;;;;;;;4.80;2.10;;;;;;;-3.40;66.57;96650.53;5093255;28;20052;-62
2023/03/14 02:27:17;;;;;;;4.15;1.70;;;;;;;-3.35;66.76;96649.78;5093290;28;20043;-65
2023/03/14 02:29:52;;;;;;;2.70;1.80;;;;;;;-3.33;66.50;96653.22;5093169;28;20048;-65
2023/03/14 02:32:22;;;;;;;3.38;1.65;;;;;;;-3.29;66.17;96651.56;5093165;28;20084;-65
2023/03/14 02:34:53;;;;;;;1.52;1.15;;;;;;;-3.31;66.31;96655.81;5096082;28;20448;-63
2023/03/14 02:37:24;;;;;;;1.55;1.42;;;;;;;-3.47;66.32;96655.53;5097295;28;20051;-67
2023/03/14 02:39:51;;;;;;;1.48;1.38;;;;;;;-3.49;67.15;96651.22;5097272;28;20048;-67
2023/03/14 02:42:21;;;;;;;1.90;1.60;;;;;;;-3.40;66.76;96645.41;5097317;28;20401;-65
2023/03/14 02:44:52;;;;;;;2.13;1.20;;;;;;;-3.31;66.65;96658.38;5097236;28;20047;-63
2023/03/14 02:47:23;;;;;;;2.33;1.45;;;;;;;-3.27;66.33;96657.59;5097113;28;20072;-65
2023/03/14 02:49:51;;;;;;;2.53;1.50;;;;;;;-3.30;66.27;96655.84;5096852;28;20509;-66
2023/03/14 02:52:20;;;;;;;1.95;1.17;;;;;;;-3.37;66.33;96653.16;5097061;28;20044;-65
2023/03/14 02:54:48;;;;;;;1.90;1.27;;;;;;;-3.36;66.68;96654.84;5096906;28;20134;-64
2023/03/14 02:57:15;;;;;;;1.77;1.25;;;;;;;-3.30;66.53;96650.72;5097061;28;20047;-65
2023/03/14 02:59:44;;;;;;;1.95;1.58;;;;;;;-3.35;66.81;96642.09;5097053;28;20052;-68
2023/03/14 03:02:11;;;;;;;2.05;1.50;;;;;;;-3.39;66.68;96649.69;5096848;28;20467;-64
2023/03/14 03:04:38;;;;;;;1.35;1.25;;;;;;;-3.46;66.73;96649.56;5096834;28;20454;-64
2023/03/14 03:07:05;;;;;;;3.58;1.40;;;;;;;-3.49;67.00;96646.09;5096689;28;20087;-63
2023/03/14 03:09:32;;;;;;;2.78;1.50;;;;;;;-3.46;66.86;96651.28;5096806;28;20127;-61
2023/03/14 03:12:00;;;;;;;1.88;1.52;;;;;;;-3.47;66.90;96650.41;5096714;28;20109;-64
2023/03/14 03:14:27;;;;;;;3.63;1.73;;;;;;;-3.46;66.92;96658.94;5096547;28;20090;-63
2023/03/14 03:16:56;;;;;;;12.88;1.40;;;;;;;-3.40;66.80;96653.09;5096573;28;20056;-65
2023/03/14 03:19:23;;;;;;;1.75;1.30;;;;;;;-3.38;66.62;96654.81;5096468;28;20101;-65
2023/03/14 03:21:50;;;;;;;2.15;1.38;;;;;;;-3.38;66.55;96661.63;5096460;28;20055;-67
2023/03/14 03:24:18;;;;;;;6.57;1.30;;;;;;;-3.32;66.38;96657.50;5096409;28;20054;-66
2023/03/14 03:26:45;;;;;;;1.20;1.10;;;;;;;-3.33;66.17;96660.91;5096377;28;20087;-67
2023/03/14 03:29:12;;;;;;;2.67;1.45;;;;;;;-3.37;66.44;96659.09;5096328;28;20445;-63
2023/03/14 03:31:40;;;;;;;2.22;1.38;;;;;;;-3.34;66.46;96658.31;5096299;28;20054;-62
2023/03/14 03:34:09;;;;;;;1.85;1.00;;;;;;;-3.32;66.42;96661.75;5096263;28;20097;-63
2023/03/14 03:36:36;;;;;;;2.20;1.17;;;;;;;-3.37;66.28;96653.97;5096055;28;20090;-63
2023/03/14 03:39:04;;;;;;;2.97;1.25;;;;;;;-3.44;66.45;96654.72;5096251;28;20083;-65
2023/03/14 03:41:31;;;;;;;2.35;1.30;;;;;;;-3.49;66.68;96649.50;5096091;28;20047;-68
2023/03/14 03:43:59;;;;;;;1.98;1.27;;;;;;;-3.50;66.82;96654.59;5095830;28;20044;-63
2023/03/14 03:46:27;;;;;;;3.53;1.65;;;;;;;-3.59;66.68;96655.28;5095856;28;20097;-66
2023/03/14 03:48:56;;;;;;;2.08;1.38;;;;;;;-3.63;66.93;96654.38;5095673;28;20048;-62
2023/03/14 03:51:25;;;;;;;4.80;1.10;;;;;;;-3.56;67.02;96655.34;5095967;28;20049;-63
2023/03/14 03:53:53;;;;;;;4.90;1.60;;;;;;;-3.71;66.76;96654.22;5096029;28;20750;-65
2023/03/14 03:56:20;;;;;;;3.22;1.55;;;;;;;-3.79;67.22;96655.75;5095840;28;20084;-64
2023/03/14 03:58:48;;;;;;;1.27;1.17;;;;;;;-3.78;67.88;96657.47;5095762;28;20200;-64
2023/03/14 04:01:15;;;;;;;2.88;1.20;;;;;;;-3.68;67.80;96650.84;5095823;28;20079;-66
2023/03/14 04:03:42;;;;;;;2.10;1.25;;;;;;;-3.63;67.57;96641.56;5095704;28;20079;-63
2023/03/14 04:06:12;;;;;;;1.80;1.25;;;;;;;-3.59;67.28;96645.91;5095712;28;20459;-65
2023/03/14 04:08:41;;;;;;;2.00;1.38;;;;;;;-3.75;67.13;96644.75;5095684;28;20051;-66
2023/03/14 04:11:09;;;;;;;3.42;1.50;;;;;;;-3.74;67.59;96641.34;5095539;28;20125;-66
2023/03/14 04:13:36;;;;;;;2.80;1.40;;;;;;;-3.71;67.69;96643.09;5095495;28;20102;-63
2023/03/14 04:16:03;;;;;;;2.00;1.10;;;;;;;-3.73;67.63;96650.75;5095346;28;20046;-63
2023/03/14 04:18:30;;;;;;;2.05;1.42;;;;;;;-3.68;67.75;96643.16;5095375;28;20102;-67
2023/03/14 04:20:58;;;;;;;1.83;1.40;;;;;;;-3.63;67.33;96639.03;5095297;28;20127;-61
2023/03/14 04:23:26;;;;;;;2.60;1.33;;;;;;;-3.56;67.40;96642.53;5095318;28;20044;-63
2023/03/14 04:25:54;;;;;;;2.03;1.55;;;;;;;-3.53;67.23;96644.31;5095364;28;20123;-69
2023/03/14 04:28:22;;;;;;;1.92;1.55;;;;;;;-3.56;67.05;96637.44;5095283;28;20090;-66
2023/03/14 04:30:49;;;;;;;2.80;1.35;;;;;;;-3.56;67.59;96629.75;5095152;28;20498;-65
2023/03/14 04:33:17;;;;;;;3.38;1.50;;;;;;;-3.53;67.56;96629.81;5095177;28;20503;-64
2023/03/14 04:35:44;;;;;;;5.38;2.00;;;;;;;-3.57;67.38;96630.59;5094987;28;20406;-67
2023/03/14 04:38:12;;;;;;;7.47;1.60;;;;;;;-3.60;67.60;96626.28;5095168;28;20087;-65
2023/03/14 04:40:40;;;;;;;2.78;1.65;;;;;;;-3.61;67.34;96628.81;5095035;28;20097;-67
2023/03/14 04:43:10;;;;;;;3.65;1.85;;;;;;;-3.59;68.16;96627.13;5094866;28;20044;-63
2023/03/14 04:45:37;;;;;;;2.78;1.77;;;;;;;-3.60;68.09;96618.63;5094905;28;20391;-68
2023/03/14 04:48:06;;;;;;;9.32;6.97;;;;;;;-3.61;67.88;96626.25;5094777;28;20105;-65
2023/03/14 04:50:33;;;;;;;3.42;2.83;;;;;;;-3.67;68.18;96627.00;5094583;28;20547;-65
2023/03/14 04:53:01;;;;;;;4.57;3.58;;;;;;;-3.63;68.36;96620.25;5094887;28;20048;-63
2023/03/14 04:55:28;;;;;;;5.25;3.08;;;;;;;-3.59;68.36;96616.91;5094608;28;20059;-63
2023/03/14 04:57:56;;;;;;;6.47;2.22;;;;;;;-3.60;68.48;96622.88;5094066;28;20051;-67
2023/03/14 05:00:25;;;;;;;3.03;2.38;;;;;;;-3.52;68.55;96617.91;5094585;28;20130;-66
2023/03/14 05:02:52;;;;;;;4.38;2.05;;;;;;;-3.57;68.65;96620.38;5094565;28;20127;-66
2023/03/14 05:05:20;;;;;;;7.10;1.90;;;;;;;-3.51;68.82;96620.50;5094513;28;20409;-61
2023/03/14 05:07:47;;;;;;;4.40;1.70;;;;;;;-3.40;69.01;96625.81;5094427;28;20135;-64
2023/03/14 05:10:14;;;;;;;6.90;4.00;;;;;;;-3.33;68.50;96619.09;5094418;28;20047;-65
2023/03/14 05:12:42;;;;;;;3.22;2.38;;;;;;;-3.23;68.65;96623.53;5094404;28;20051;-67
2023/03/14 05:15:10;;;;;;;3.72;2.20;;;;;;;-3.09;68.51;96628.91;5094154;28;20046;-61
2023/03/14 05:17:38;;;;;;;8.63;1.90;;;;;;;-2.50;68.55;96620.44;5094341;28;20044;-66
2023/03/14 05:20:08;;;;;;;2.78;1.42;;;;;;;-1.10;64.18;96626.41;5094275;28;20083;-64
2023/03/14 05:22:36;;;;;;;1.30;1.13;;;;;;;0.61;59.85;96630.00;5094154;28;20048;-67
2023/03/14 05:25:03;;;;;;;4.25;1.27;;;;;;;2.31;54.24;96618.78;5094147;28;20056;-62
2023/03/14 05:27:33;;;;;;;2.42;1.35;;;;;;;3.25;50.50;96620.84;5094145;28;20044;-62
2023/03/14 05:30:01;;;;;;;1.93;1.47;;;;;;;4.12;48.37;96609.69;5093962;28;20051;-64
2023/03/14 05:32:28;;;;;;;5.28;1.42;;;;;;;5.25;45.67;96618.56;5093905;28;20056;-66
2023/03/14 05:34:58;;;;;;;6.75;1.52;;;;;;;6.39;43.78;96614.88;5094004;28;20383;-64
2023/03/14 05:37:26;;;;;;;4.03;1.63;;;;;;;7.51;41.54;96608.09;5093857;28;20059;-62
2023/03/14 05:39:54;;;;;;;1.67;1.58;;;;;;;8.50;38.55;96611.59;5093836;28;20044;-63
2023/03/14 05:42:22;;;;;;;4.22;2.05;;;;;;;9.38;37.00;96605.50;5093839;28;20082;-65
2023/03/14 05:44:49;;;;;;;4.07;1.67;;;;;;;10.28;35.90;96609.47;5093651;28;20048;-63
2023/03/14 05:47:16;;;;;;;5.10;2.15;;;;;;;11.06;33.49;96609.25;5093623;28;20059;-64
2023/03/14 05:49:44;;;;;;;2.15;1.40;;;;;;;11.66;33.66;96614.78;5093526;28;20040;-64
2023/03/14 05:52:12;;;;;;;1.55;1.35;;;;;;;12.24;32.42;96606.25;5093719;28;20048;-64
2023/03/14 05:54:40;;;;;;;1.63;1.20;;;;;;;12.93;30.93;96608.44;5093643;28;20048;-63
2023/03/14 05:57:08;;;;;;;1.70;1.20;;;;;;;13.60;29.69;96614.97;5093508;28;20052;-65
2023/03/14 05:59:35;;;;;;;3.70;1.17;;;;;;;13.92;28.88;96617.78;5093603;28;20093;-63
2023/03/14 06:02:03;;;;;;;2.42;2.05;;;;;;;14.74;29.27;96611.84;5093515;28;20486;-65
2023/03/14 06:04:30;;;;;;;2.42;1.60;;;;;;;15.33;28.92;96623.66;5093464;28;20083;-64
2023/03/14 06:06:58;;;;;;;2.13;1.30;;;;;;;15.68;28.32;96627.84;5093508;28;20112;-63
2023/03/14 06:09:26;;;;;;;1.80;1.20;;;;;;;15.99;26.99;96619.06;5093235;28;20166;-63
2023/03/14 06:11:55;;;;;;;1.90;1.40;;;;;;;16.34;26.91;96620.50;5093333;28;20040;-63
2023/03/14 06:14:22;;;;;;;2.20;1.25;;;;;;;16.60;26.47;96620.72;5093366;28;20047;-62
2023/03/14 06:16:50;;;;;;;4.22;1.50;;;;;;;16.61;26.21;96630.34;5093263;28;20048;-62
2023/03/14 06:19:18;;;;;;;5.47;1.20;;;;;;;16.98;26.48;96636.94;5093189;28;20044;-64
2023/03/14 06:21:45;;;;;;;8.60;1.33;;;;;;;17.33;25.42;96628.59;5093140;28;20097;-64
2023/03/14 06:24:12;;;;;;;5.43;1.67;;;;;;;17.42;25.46;96627.16;5093231;28;20087;-62
2023/03/14 06:26:40;;;;;;;4.88;1.80;;;;;;;17.39;25.61;96625.56;5093352;28;20105;-63
2023/03/14 06:29:08;;;;;;;2.60;1.70;;;;;;;18.06;24.71;96623.84;5093194;28;20126;-63
2023/03/14 06:31:36;;;;;;;2.83;1.90;;;;;;;18.16;25.14;96632.06;5093238;28;20044;-64
2023/03/14 06:34:04;;;;;;;9.85;1.40;;;;;;;18.96;23.43;96618.69;5093089;28;20479;-63
2023/03/14 06:36:31;;;;;;;2.50;1.65;;;;;;;19.74;21.87;96623.75;5092958;28;20048;-63
2023/03/14 06:38:59;;;;;;;6.13;1.48;;;;;;;19.86;21.90;96622.00;5093046;28;20078;-64
2023/03/14 06:41:28;;;;;;;2.65;1.40;;;;;;;20.28;21.43;96618.91;5093032;28;20054;-64
2023/03/14 06:43:59;;;;;;;6.82;3.75;;;;;;;20.51;21.41;96620.75;5092970;28;20127;-64
2023/03/14 06:46:26;;;;;;;5.72;2.05;;;;;;;20.91;20.83;96611.50;5092968;28;20048;-62
2023/03/14 06:48:54;;;;;;;2.78;2.17;;;;;;;20.93;20.83;96609.56;5092827;28;20084;-62
2023/03/14 06:51:21;;;;;;;2.53;1.60;;;;;;;20.28;22.43;96610.09;5092927;28;20054;-62
2023/03/14 06:53:48;;;;;;;3.05;1.30;;;;;;;19.59;22.26;96616.97;5092933;28;20043;-63
2023/03/14 06:56:16;;;;;;;7.80;1.15;;;;;;;19.92;21.87;96610.94;5092915;28;20471;-64
2023/03/14 06:58:44;;;;;;;2.85;2.22;;;;;;;20.12;21.13;96613.94;5092968;28;20106;-64
2023/03/14 07:01:22;;;;;;;7.03;6.32;;;;;;;20.37;20.61;96617.34;5092856;28;20141;-63
2023/03/14 07:03:49;;;;;;;2.38;1.98;;;;;;;19.79;19.69;96611.00;5092793;28;20098;-62
2023/03/14 07:06:16;;;;;;;3.45;2.60;;;;;;;19.66;20.18;96615.53;5092926;28;20059;-63
2023/03/14 07:08:43;;;;;;;3.25;2.10;;;;;;;19.73;20.23;96610.59;5092848;28;20083;-63
2023/03/14 07:11:11;;;;;;;2.42;1.65;;;;;;;19.10;19.45;96606.28;5092804;28;20488;-64
2023/03/14 07:13:38;;;;;;;3.80;1.58;;;;;;;18.21;20.59;96596.50;5092846;28;20052;-63
2023/03/14 07:16:06;;;;;;;1.70;1.10;;;;;;;17.27;20.62;96600.75;5092543;28;20048;-62
2023/03/14 07:18:35;;;;;;;1.30;1.20;;;;;;;17.10;19.73;96601.81;5092674;28;20134;-64
2023/03/14 07:21:02;;;;;;;1.67;1.40;;;;;;;16.49;20.47;96599.41;5095843;28;20075;-62
2023/03/14 07:23:30;;;;;;;1.15;0.80;;;;;;;16.12;20.83;96594.56;5096547;28;20481;-62
2023/03/14 07:25:57;;;;;;;2.72;1.25;;;;;;;16.00;21.96;96590.88;5096496;28;20051;-62
2023/03/14 07:28:25;;;;;;;1.45;1.10;;;;;;;15.57;21.50;96589.78;5096360;28;20047;-62
2023/03/14 07:30:52;;;;;;;1.85;1.10;;;;;;;15.73;21.92;96588.88;5096391;28;20044;-65
2023/03/14 07:33:20;;;;;;;4.47;1.13;;;;;;;15.29;21.61;96588.69;5096296;28;20076;-64
2023/03/14 07:35:50;;;;;;;2.20;1.40;;;;;;;15.03;22.63;96580.47;5096152;28;20048;-62
2023/03/14 07:38:18;;;;;;;2.13;1.02;;;;;;;15.30;22.31;96579.88;5096114;28;20050;-63
2023/03/14 07:40:45;;;;;;;1.50;1.13;;;;;;;15.01;23.32;96579.72;5096170;28;20448;-63
2023/03/14 07:43:12;;;;;;;5.20;1.88;;;;;;;14.59;26.40;96572.25;5096164;28;20101;-62
2023/03/14 07:45:40;;;;;;;1.70;1.20;;;;;;;14.78;24.47;96576.56;5096068;28;20048;-64
2023/03/14 07:48:07;;;;;;;1.67;1.27;;;;;;;14.32;25.48;96562.28;5096126;28;20101;-65
2023/03/14 07:50:34;;;;;;;1.63;1.20;;;;;;;14.25;25.93;96576.69;5095896;28;20048;-64
2023/03/14 07:53:04;;;;;;;2.60;1.50;;;;;;;14.17;26.96;96563.09;5095966;28;20437;-65
2023/03/14 07:55:31;;;;;;;3.58;1.70;;;;;;;13.96;26.96;96564.09;5095987;28;20478;-65
2023/03/14 07:57:59;;;;;;;3.75;1.60;;;;;;;13.82;27.54;96566.59;5095724;28;20083;-65
2023/03/14 08:00:26;;;;;;;2.72;1.70;;;;;;;14.10;27.70;96565.19;5095778;28;20077;-64
2023/03/14 08:02:53;;;;;;;2.25;1.20;;;;;;;13.97;27.26;96554.44;5095698;28;20047;-65
2023/03/14 08:05:20;;;;;;;4.07;1.50;;;;;;;14.12;26.99;96558.06;5095747;28;20052;-63
2023/03/14 08:07:48;;;;;;;2.97;1.70;;;;;;;13.73;28.46;96558.22;5095715;28;20079;-64
2023/03/14 08:10:22;;;;;;;3.53;1.50;;;;;;;13.93;27.51;96547.66;5095971;28;20151;-63
2023/03/14 08:12:49;;;;;;;3.03;1.48;;;;;;;14.31;25.99;96542.16;5095566;28;20052;-62
2023/03/14 08:15:16;;;;;;;3.63;2.25;;;;;;;14.50;27.25;96551.69;5095504;28;20071;-66
2023/03/14 08:17:44;;;;;;;4.15;1.55;;;;;;;14.40;26.04;96546.94;5095370;28;20048;-63
2023/03/14 08:20:13;;;;;;;4.38;1.60;;;;;;;14.72;26.63;96545.28;5095408;28;20044;-65
2023/03/14 08:22:40;;;;;;;1.95;1.30;;;;;;;15.18;25.70;96548.94;5095268;28;20127;-64
2023/03/14 08:25:08;;;;;;;4.55;1.20;;;;;;;15.37;25.06;96540.84;5095428;28;20051;-64
2023/03/14 08:27:38;;;;;;;1.88;1.52;;;;;;;15.13;25.43;96534.25;5095316;28;20040;-66
2023/03/14 08:30:07;;;;;;;1.80;1.40;;;;;;;15.52;26.24;96536.47;5095224;28;20055;-65
2023/03/14 08:32:35;;;;;;;2.85;1.50;;;;;;;15.66;25.14;96539.13;5094028;28;20043;-65
2023/03/14 08:35:02;;;;;;;3.65;1.45;;;;;;;15.26;25.49;96536.19;5095088;28;20044;-68
2023/03/14 08:37:29;;;;;;;4.75;1.63;;;;;;;15.45;25.45;96535.13;5095027;28;20052;-66
2023/03/14 08:39:56;;;;;;;6.05;1.48;;;;;;;15.69;24.53;96532.84;5095167;28;20068;-64
2023/03/14 08:42:23;;;;;;;2.95;1.80;;;;;;;15.36;24.28;96529.47;5095062;28;20044;-64
2023/03/14 08:44:52;;;;;;;3.15;1.42;;;;;;;15.32;25.15;96521.81;5095187;28;20067;-67
2023/03/14 08:47:20;;;;;;;5.75;1.80;;;;;;;15.16;25.80;96517.41;5095063;28;20050;-65
2023/03/14 08:49:47;;;;;;;2.45;1.42;;;;;;;15.38;25.86;96517.03;5094686;28;20056;-64
2023/03/14 08:52:16;;;;;;;3.05;1.58;;;;;;;15.41;25.52;96510.72;5094774;28;20040;-66
2023/03/14 08:54:44;;;;;;;2.20;1.42;;;;;;;15.46;26.55;96511.31;5094782;28;20134;-65
2023/03/14 08:57:11;;;;;;;2.15;1.67;;;;;;;15.33;26.28;96508.56;5094631;28;20459;-67
2023/03/14 08:59:38;;;;;;;2.15;1.52;;;;;;;15.68;24.60;96496.03;5094693;28;20087;-67
2023/03/14 09:02:07;;;;;;;5.55;1.80;;;;;;;15.28;27.02;96497.41;5094615;28;20417;-64
2023/03/14 09:04:34;;;;;;;2.15;1.60;;;;;;;14.44;28.12;96489.72;5094558;28;20082;-65
2023/03/14 09:07:01;;;;;;;2.25;1.50;;;;;;;14.60;28.50;96504.69;5094449;28;20040;-64
2023/03/14 09:09:29;;;;;;;3.88;1.60;;;;;;;14.40;29.47;96489.06;5094374;28;20464;-64
2023/03/14 09:11:57;;;;;;;2.42;1.70;;;;;;;13.95;30.45;96493.19;5094453;28;20079;-63
2023/03/14 09:14:24;;;;;;;3.33;1.50;;;;;;;14.07;29.00;96483.81;5094521;28;20556;-64
2023/03/14 09:16:51;;;;;;;5.18;2.00;;;;;;;14.12;27.41;96476.53;5094351;28;20498;-66
2023/03/14 09:19:20;;;;;;;4.32;1.92;;;;;;;14.20;27.79;96473.47;5094303;28;20056;-64
2023/03/14 09:21:47;;;;;;;2.95;1.60;;;;;;;14.13;31.91;96480.84;5094232;28;20112;-66
2023/03/14 09:24:14;;;;;;;2.72;1.60;;;;;;;14.28;32.89;96473.91;5094130;28;20082;-63
2023/03/14 09:26:41;;;;;;;2.72;1.45;;;;;;;14.08;31.20;96469.72;5094083;28;20052;-66
2023/03/14 09:29:08;;;;;;;8.88;1.98;;;;;;;13.82;33.09;96462.28;5093988;28;20048;-62
2023/03/14 09:31:36;;;;;;;3.13;1.73;;;;;;;14.11;31.20;96462.53;5093998;28;20052;-63
2023/03/14 09:34:03;;;;;;;1.88;1.38;;;;;;;14.24;31.54;96461.88;5093989;28;20055;-63
2023/03/14 09:36:32;;;;;;;3.05;1.45;;;;;;;14.12;30.80;96447.59;5093841;28;20047;-66
2023/03/14 09:38:59;;;;;;;3.13;1.80;;;;;;;14.12;30.72;96442.34;5093923;28;20075;-65
2023/03/14 09:41:29;;;;;;;4.97;1.85;;;;;;;14.42;29.73;96440.75;5093918;28;20409;-67
2023/03/14 09:44:04;;;;;;;2.58;1.55;;;;;;;14.36;31.46;96445.41;5093570;28;20098;-63
2023/03/14 09:46:34;;;;;;;2.28;1.67;;;;;;;13.97;30.89;96439.59;5093763;28;20127;-64
2023/03/14 09:49:02;;;;;;;3.22;1.58;;;;;;;13.87;28.68;96435.75;5093662;28;20075;-63
2023/03/14 09:51:32;;;;;;;5.10;1.50;;;;;;;13.79;30.83;96424.78;5093798;28;20153;-65
2023/03/14 09:54:00;;;;;;;3.13;1.60;;;;;;;13.50;30.97;96430.66;5093586;28;20478;-66
2023/03/14 09:56:31;;;;;;;5.15;1.40;;;;;;;13.55;31.86;96427.78;5093581;28;20040;-65
2023/03/14 09:59:01;;;;;;;6.45;1.50;;;;;;;13.57;32.27;96424.13;5093647;28;20047;-63
2023/03/14 10:01:30;;;;;;;4.80;1.60;;;;;;;13.55;31.83;96422.53;5093676;28;20127;-66
2023/03/14 10:03:59;;;;;;;2.25;1.45;;;;;;;13.66;31.93;96419.34;5093598;28;20046;-64
2023/03/14 10:06:29;;;;;;;2.17;1.98;;;;;;;13.71;32.24;96417.31;5093466;28;20048;-67
2023/03/14 10:08:58;;;;;;;4.80;1.73;;;;;;;13.69;31.46;96416.56;5093488;28;20477;-67
2023/03/14 10:11:25;;;;;;;4.40;1.98;;;;;;;13.52;31.75;96408.59;5093309;28;20452;-63
2023/03/14 10:14:05;;;;;;;2.55;1.45;;;;;;;13.36;33.30;96402.41;5093390;28;20044;-62
2023/03/14 10:16:35;;;;;;;5.50;2.03;;;;;;;13.48;30.59;96398.31;5093485;28;20102;-64
2023/03/14 10:19:07;;;;;;;3.08;2.42;;;;;;;13.71;32.81;96396.28;5093215;28;20052;-66
2023/03/14 10:21:39;;;;;;;2.70;1.80;;;;;;;13.73;32.87;96395.25;5093404;28;20143;-64
2023/03/14 10:24:21;;;;;;;7.68;1.83;;;;;;;13.84;31.85;96394.69;5093241;28;20131;-62
2023/03/14 10:26:54;;;;;;;2.92;1.95;;;;;;;13.88;33.59;96385.72;5093212;28;20557;-66
2023/03/14 10:29:23;;;;;;;2.10;1.65;;;;;;;14.04;31.19;96374.38;5093153;28;20121;-64
2023/03/14 10:31:54;;;;;;;3.00;1.77;;;;;;;14.12;33.74;96372.16;5093185;28;20044;-65
2023/03/14 10:34:24;;;;;;;;;;;;;;;14.17;29.21;96366.66;5093665;28;20477;-65
2023/03/14 10:36:55;;;;;;;3.80;2.13;;;;;;;13.93;31.65;96364.44;5093124;28;20340;-62
2023/03/14 10:39:41;;;;;;;;;;;;;;;13.95;32.01;96359.09;5093530;28;20048;-64
2023/03/14 10:42:20;;;;;;;4.05;2.00;;;;;;;13.71;31.35;96357.72;5093038;28;19967;-63
2023/03/14 10:44:52;;;;;;;3.65;1.83;;;;;;;13.83;30.46;96353.56;5093083;28;20044;-64
2023/03/14 10:47:21;;;;;;;4.30;2.13;;;;;;;13.65;31.42;96344.91;5093121;28;20537;-64
2023/03/14 10:49:48;;;;;;;6.28;2.25;;;;;;;13.64;31.75;96343.22;5092776;28;20091;-66
2023/03/14 10:52:22;;;;;;;4.60;2.50;;;;;;;13.60;31.55;96347.75;5092970;28;20074;-66
2023/03/14 10:54:55;;;;;;;4.85;2.63;;;;;;;13.52;31.52;96334.19;5094147;28;20079;-64
2023/03/14 10:57:23;;;;;;;6.15;2.70;;;;;;;13.58;32.23;96333.84;5096883;28;20561;-66
2023/03/14 10:59:51;;;;;;;5.63;2.67;;;;;;;13.70;31.65;96316.56;5097085;28;20094;-64
2023/03/14 11:02:36;;;;;;;4.45;2.85;;;;;;;13.89;31.81;96319.06;5096987;28;20047;-64
2023/03/14 11:05:16;;;;;;;4.75;2.92;;;;;;;13.75;31.82;96318.94;5096923;28;20133;-65
2023/03/14 11:07:45;;;;;;;6.07;3.33;;;;;;;13.44;31.09;96310.06;5096934;28;20097;-66
2023/03/14 11:10:19;;;;;;;11.68;3.70;;;;;;;13.51;31.33;96307.06;5096742;28;20056;-62
2023/03/14 11:13:02;;;;;;;7.65;3.33;;;;;;;13.64;32.24;96309.88;5096678;28;20067;-61
2023/03/14 11:15:33;;;;;;;5.55;3.28;;;;;;;13.62;33.25;96301.25;5096641;28;20509;-64
2023/03/14 11:18:22;;;;;;;4.95;3.40;;;;;;;13.68;30.41;96286.06;5096552;28;20091;-62
2023/03/14 11:20:54;;;;;;;5.93;3.65;;;;;;;13.61;30.99;96289.00;5096641;28;20052;-65
2023/03/14 11:23:23;;;;;;;6.35;3.50;;;;;;;13.66;29.65;96278.25;5096669;28;20217;-64
2023/03/14 11:25:58;;;;;;;7.60;3.80;;;;;;;13.61;29.69;96269.78;5096591;28;20063;-65
2023/03/14 11:28:33;;;;;;;6.93;3.72;;;;;;;13.71;28.82;96272.75;5096390;28;20055;-66
2023/03/14 11:31:12;;;;;;;9.63;2.92;;;;;;;13.60;29.94;96255.78;5096409;28;20086;-63
2023/03/14 11:33:45;;;;;;;7.07;3.05;;;;;;;13.69;28.59;96250.97;5096354;28;20089;-64
2023/03/14 11:36:18;;;;;;;5.55;3.13;;;;;;;13.75;29.13;96235.69;5096341;28;20493;-65
2023/03/14 11:38:50;;;;;;;8.05;3.22;;;;;;;13.72;30.64;96224.50;5096140;28;20135;-61
2023/03/14 11:41:21;;;;;;;6.38;3.10;;;;;;;13.80;28.84;96217.03;5096243;28;20080;-62